sensor_id;sensor_type;location;lat;lon;timestamp;pressure;altitude;pressure_sealevel;temperature;humidity
69980;BME280;57318;56.232;43.944;2023-07-30T00:02:24;97599.50;;;18.38;92.47
69980;BME280;57318;56.232;43.944;2023-07-30T00:04:50;97606.94;;;18.43;92.12
69980;BME280;57318;56.232;43.944;2023-07-30T00:07:16;97606.50;;;18.46;91.86
69980;BME280;57318;56.232;43.944;2023-07-30T00:09:41;97592.41;;;18.51;91.59
69980;BME280;57318;56.232;43.944;2023-07-30T00:12:08;97597.34;;;18.54;91.34
69980;BME280;57318;56.232;43.944;2023-07-30T00:14:34;97597.94;;;18.56;91.24
69980;BME280;57318;56.232;43.944;2023-07-30T00:17:00;97589.78;;;18.63;90.79
69980;BME280;57318;56.232;43.944;2023-07-30T00:19:26;97588.53;;;18.65;90.64
69980;BME280;57318;56.232;43.944;2023-07-30T00:21:52;97582.13;;;18.66;90.41
69980;BME280;57318;56.232;43.944;2023-07-30T00:24:18;97584.59;;;18.68;90.19
69980;BME280;57318;56.232;43.944;2023-07-30T00:26:44;97581.69;;;18.69;90.13
69980;BME280;57318;56.232;43.944;2023-07-30T00:29:10;97581.47;;;18.71;89.91
69980;BME280;57318;56.232;43.944;2023-07-30T00:31:36;97578.16;;;18.69;90.10
69980;BME280;57318;56.232;43.944;2023-07-30T00:34:01;97572.56;;;18.70;90.09
69980;BME280;57318;56.232;43.944;2023-07-30T00:36:28;97571.53;;;18.71;89.92
69980;BME280;57318;56.232;43.944;2023-07-30T00:38:53;97570.09;;;18.69;89.66
69980;BME280;57318;56.232;43.944;2023-07-30T00:41:19;97565.56;;;18.69;89.47
69980;BME280;57318;56.232;43.944;2023-07-30T00:43:45;97568.25;;;18.69;89.82
69980;BME280;57318;56.232;43.944;2023-07-30T00:46:12;97568.25;;;18.69;89.64
69980;BME280;57318;56.232;43.944;2023-07-30T00:48:38;97568.84;;;18.71;89.54
69980;BME280;57318;56.232;43.944;2023-07-30T00:51:04;97564.25;;;18.72;89.55
69980;BME280;57318;56.232;43.944;2023-07-30T00:53:32;97567.78;;;18.72;89.48
69980;BME280;57318;56.232;43.944;2023-07-30T00:55:57;97566.72;;;18.73;89.50
69980;BME280;57318;56.232;43.944;2023-07-30T00:58:23;97565.91;;;18.73;89.48
69980;BME280;57318;56.232;43.944;2023-07-30T01:00:51;97573.63;;;18.69;89.44
69980;BME280;57318;56.232;43.944;2023-07-30T01:03:18;97580.41;;;18.72;89.45
69980;BME280;57318;56.232;43.944;2023-07-30T01:05:44;97571.53;;;18.71;89.56
69980;BME280;57318;56.232;43.944;2023-07-30T01:08:10;97565.31;;;18.71;89.55
69980;BME280;57318;56.232;43.944;2023-07-30T01:10:37;97566.59;;;18.68;89.94
69980;BME280;57318;56.232;43.944;2023-07-30T01:13:07;97568.25;;;18.69;89.72
69980;BME280;57318;56.232;43.944;2023-07-30T01:15:34;97565.91;;;18.73;89.69
69980;BME280;57318;56.232;43.944;2023-07-30T01:18:00;97574.38;;;18.76;89.55
69980;BME280;57318;56.232;43.944;2023-07-30T01:20:32;97574.81;;;18.73;89.06
69980;BME280;57318;56.232;43.944;2023-07-30T01:22:59;97569.66;;;18.72;89.06
69980;BME280;57318;56.232;43.944;2023-07-30T01:25:24;97558.66;;;18.73;88.86
69980;BME280;57318;56.232;43.944;2023-07-30T01:27:55;97567.34;;;18.75;88.81
69980;BME280;57318;56.232;43.944;2023-07-30T01:30:35;97566.72;;;18.73;88.70
69980;BME280;57318;56.232;43.944;2023-07-30T01:33:04;97566.94;;;18.72;88.53
69980;BME280;57318;56.232;43.944;2023-07-30T01:35:30;97556.63;;;18.69;88.56
69980;BME280;57318;56.232;43.944;2023-07-30T01:37:57;97559.53;;;18.67;88.29
69980;BME280;57318;56.232;43.944;2023-07-30T01:40:24;97555.25;;;18.60;88.08
69980;BME280;57318;56.232;43.944;2023-07-30T01:42:50;97559.84;;;18.59;88.26
69980;BME280;57318;56.232;43.944;2023-07-30T01:45:16;97548.91;;;18.54;88.37
69980;BME280;57318;56.232;43.944;2023-07-30T01:47:42;97547.09;;;18.48;88.24
69980;BME280;57318;56.232;43.944;2023-07-30T01:50:08;97536.34;;;18.48;88.37
69980;BME280;57318;56.232;43.944;2023-07-30T01:52:34;97548.75;;;18.49;88.24
69980;BME280;57318;56.232;43.944;2023-07-30T01:54:59;97539.84;;;18.48;88.27
69980;BME280;57318;56.232;43.944;2023-07-30T01:57:26;97539.25;;;18.46;88.02
69980;BME280;57318;56.232;43.944;2023-07-30T01:59:52;97545.69;;;18.45;87.96
69980;BME280;57318;56.232;43.944;2023-07-30T02:02:18;97548.59;;;18.44;87.92
69980;BME280;57318;56.232;43.944;2023-07-30T02:04:44;97555.19;;;18.48;87.87
69980;BME280;57318;56.232;43.944;2023-07-30T02:07:10;97554.59;;;18.46;87.70
69980;BME280;57318;56.232;43.944;2023-07-30T02:09:36;97549.22;;;18.46;87.48
69980;BME280;57318;56.232;43.944;2023-07-30T02:12:02;97553.53;;;18.47;87.30
69980;BME280;57318;56.232;43.944;2023-07-30T02:14:28;97554.59;;;18.46;87.01
69980;BME280;57318;56.232;43.944;2023-07-30T02:16:54;97541.16;;;18.39;86.72
69980;BME280;57318;56.232;43.944;2023-07-30T02:19:20;97561.06;;;18.38;86.86
69980;BME280;57318;56.232;43.944;2023-07-30T02:21:45;97555.28;;;18.34;86.83
69980;BME280;57318;56.232;43.944;2023-07-30T02:24:11;97557.31;;;18.39;86.68
69980;BME280;57318;56.232;43.944;2023-07-30T02:26:38;97563.09;;;18.43;86.31
69980;BME280;57318;56.232;43.944;2023-07-30T02:29:04;97565.34;;;18.46;86.13
69980;BME280;57318;56.232;43.944;2023-07-30T02:31:30;97559.13;;;18.45;85.94
69980;BME280;57318;56.232;43.944;2023-07-30T02:33:56;97553.94;;;18.50;86.08
69980;BME280;57318;56.232;43.944;2023-07-30T02:36:22;97551.00;;;18.52;86.03
69980;BME280;57318;56.232;43.944;2023-07-30T02:38:48;97555.78;;;18.50;85.83
69980;BME280;57318;56.232;43.944;2023-07-30T02:41:13;97551.47;;;18.49;85.79
69980;BME280;57318;56.232;43.944;2023-07-30T02:43:39;97559.13;;;18.45;85.93
69980;BME280;57318;56.232;43.944;2023-07-30T02:46:05;97558.09;;;18.46;86.01
69980;BME280;57318;56.232;43.944;2023-07-30T02:48:32;97556.06;;;18.42;86.23
69980;BME280;57318;56.232;43.944;2023-07-30T02:50:58;97562.91;;;18.37;86.60
69980;BME280;57318;56.232;43.944;2023-07-30T02:53:24;97564.41;;;18.33;86.54
69980;BME280;57318;56.232;43.944;2023-07-30T02:55:49;97554.31;;;18.29;86.90
69980;BME280;57318;56.232;43.944;2023-07-30T02:58:15;97559.31;;;18.25;87.24
69980;BME280;57318;56.232;43.944;2023-07-30T03:00:41;97568.03;;;18.20;87.42
69980;BME280;57318;56.232;43.944;2023-07-30T03:03:06;97576.47;;;18.24;87.32
69980;BME280;57318;56.232;43.944;2023-07-30T03:05:32;97570.59;;;18.34;87.11
69980;BME280;57318;56.232;43.944;2023-07-30T03:07:59;97564.13;;;18.42;87.12
69980;BME280;57318;56.232;43.944;2023-07-30T03:10:25;97564.28;;;18.47;86.73
69980;BME280;57318;56.232;43.944;2023-07-30T03:12:50;97554.31;;;18.54;86.49
69980;BME280;57318;56.232;43.944;2023-07-30T03:15:16;97563.31;;;18.66;86.14
69980;BME280;57318;56.232;43.944;2023-07-30T03:17:41;97559.28;;;18.75;85.71
69980;BME280;57318;56.232;43.944;2023-07-30T03:20:10;97570.97;;;18.88;85.26
69980;BME280;57318;56.232;43.944;2023-07-30T03:22:35;97562.09;;;18.87;84.50
69980;BME280;57318;56.232;43.944;2023-07-30T03:25:01;97575.53;;;18.87;84.37
69980;BME280;57318;56.232;43.944;2023-07-30T03:27:30;97564.78;;;18.87;84.34
69980;BME280;57318;56.232;43.944;2023-07-30T03:29:56;97571.81;;;18.88;84.29
69980;BME280;57318;56.232;43.944;2023-07-30T03:32:21;97571.59;;;18.90;84.28
69980;BME280;57318;56.232;43.944;2023-07-30T03:34:47;97575.47;;;18.94;84.24
69980;BME280;57318;56.232;43.944;2023-07-30T03:37:13;97576.69;;;18.98;84.24
69980;BME280;57318;56.232;43.944;2023-07-30T03:39:38;97571.16;;;19.11;83.99
69980;BME280;57318;56.232;43.944;2023-07-30T03:42:04;97578.50;;;19.23;83.65
69980;BME280;57318;56.232;43.944;2023-07-30T03:44:30;97577.97;;;19.33;83.28
69980;BME280;57318;56.232;43.944;2023-07-30T03:46:56;97578.84;;;19.45;82.49
69980;BME280;57318;56.232;43.944;2023-07-30T03:49:21;97582.44;;;19.57;81.90
69980;BME280;57318;56.232;43.944;2023-07-30T03:51:47;97583.78;;;19.67;81.46
69980;BME280;57318;56.232;43.944;2023-07-30T03:54:13;97583.25;;;19.76;80.91
69980;BME280;57318;56.232;43.944;2023-07-30T03:56:39;97577.91;;;19.88;80.65
69980;BME280;57318;56.232;43.944;2023-07-30T03:59:04;97576.31;;;19.99;80.29
69980;BME280;57318;56.232;43.944;2023-07-30T04:01:30;97581.97;;;20.09;79.66
69980;BME280;57318;56.232;43.944;2023-07-30T04:03:56;97584.94;;;20.19;78.95
69980;BME280;57318;56.232;43.944;2023-07-30T04:06:22;97580.84;;;20.29;78.62
69980;BME280;57318;56.232;43.944;2023-07-30T04:08:47;97590.72;;;20.35;78.01
69980;BME280;57318;56.232;43.944;2023-07-30T04:11:13;97587.22;;;20.46;77.69
69980;BME280;57318;56.232;43.944;2023-07-30T04:13:39;97584.31;;;20.60;77.50
69980;BME280;57318;56.232;43.944;2023-07-30T04:16:06;97588.94;;;20.71;77.10
69980;BME280;57318;56.232;43.944;2023-07-30T04:18:32;97598.22;;;20.75;76.94
69980;BME280;57318;56.232;43.944;2023-07-30T04:20:57;97593.97;;;20.79;76.24
69980;BME280;57318;56.232;43.944;2023-07-30T04:23:23;97593.97;;;20.79;76.33
69980;BME280;57318;56.232;43.944;2023-07-30T04:25:49;97588.94;;;20.71;76.52
69980;BME280;57318;56.232;43.944;2023-07-30T04:28:16;97587.50;;;20.68;76.95
69980;BME280;57318;56.232;43.944;2023-07-30T04:30:41;97596.91;;;20.78;77.04
69980;BME280;57318;56.232;43.944;2023-07-30T04:33:07;97589.41;;;20.91;76.66
69980;BME280;57318;56.232;43.944;2023-07-30T04:35:33;97596.78;;;21.08;76.16
69980;BME280;57318;56.232;43.944;2023-07-30T04:37:58;97594.88;;;21.20;75.23
69980;BME280;57318;56.232;43.944;2023-07-30T04:40:24;97594.06;;;21.32;74.48
69980;BME280;57318;56.232;43.944;2023-07-30T04:42:50;97591.00;;;21.40;74.42
69980;BME280;57318;56.232;43.944;2023-07-30T04:45:15;97583.81;;;21.57;74.30
69980;BME280;57318;56.232;43.944;2023-07-30T04:47:41;97595.13;;;21.83;73.21
69980;BME280;57318;56.232;43.944;2023-07-30T04:50:07;97597.19;;;22.22;72.08
69980;BME280;57318;56.232;43.944;2023-07-30T04:52:32;97606.59;;;22.65;70.71
69980;BME280;57318;56.232;43.944;2023-07-30T04:54:58;97604.13;;;22.97;69.10
69980;BME280;57318;56.232;43.944;2023-07-30T04:57:24;97595.00;;;23.03;68.05
69980;BME280;57318;56.232;43.944;2023-07-30T04:59:50;97592.81;;;23.00;68.39
69980;BME280;57318;56.232;43.944;2023-07-30T05:02:15;97598.16;;;22.95;68.50
69980;BME280;57318;56.232;43.944;2023-07-30T05:04:41;97595.94;;;22.92;68.39
69980;BME280;57318;56.232;43.944;2023-07-30T05:07:07;97596.19;;;22.91;68.21
69980;BME280;57318;56.232;43.944;2023-07-30T05:09:32;97598.22;;;23.17;67.88
69980;BME280;57318;56.232;43.944;2023-07-30T05:11:58;97597.09;;;23.35;66.89
69980;BME280;57318;56.232;43.944;2023-07-30T05:14:24;97596.16;;;23.69;65.74
69980;BME280;57318;56.232;43.944;2023-07-30T05:16:50;97593.97;;;23.88;65.09
69980;BME280;57318;56.232;43.944;2023-07-30T05:19:16;97607.09;;;23.96;64.38
69980;BME280;57318;56.232;43.944;2023-07-30T05:21:42;97603.19;;;23.87;63.82
69980;BME280;57318;56.232;43.944;2023-07-30T05:24:08;97598.81;;;23.64;64.33
69980;BME280;57318;56.232;43.944;2023-07-30T05:26:34;97599.13;;;23.45;65.11
69980;BME280;57318;56.232;43.944;2023-07-30T05:28:59;97596.47;;;23.28;65.84
69980;BME280;57318;56.232;43.944;2023-07-30T05:31:25;97587.88;;;23.14;66.40
69980;BME280;57318;56.232;43.944;2023-07-30T05:33:51;97594.63;;;23.12;67.07
69980;BME280;57318;56.232;43.944;2023-07-30T05:36:17;97600.53;;;23.09;66.71
69980;BME280;57318;56.232;43.944;2023-07-30T05:38:43;97602.66;;;23.23;66.46
69980;BME280;57318;56.232;43.944;2023-07-30T05:41:09;97603.88;;;23.55;65.83
69980;BME280;57318;56.232;43.944;2023-07-30T05:43:34;97607.50;;;23.66;64.53
69980;BME280;57318;56.232;43.944;2023-07-30T05:46:00;97606.31;;;23.56;64.08
69980;BME280;57318;56.232;43.944;2023-07-30T05:48:26;97611.06;;;23.66;64.37
69980;BME280;57318;56.232;43.944;2023-07-30T05:50:51;97613.94;;;23.59;64.45
69980;BME280;57318;56.232;43.944;2023-07-30T05:53:17;97618.44;;;23.49;64.55
69980;BME280;57318;56.232;43.944;2023-07-30T05:55:43;97613.00;;;23.49;64.95
69980;BME280;57318;56.232;43.944;2023-07-30T05:58:08;97616.22;;;23.46;64.78
69980;BME280;57318;56.232;43.944;2023-07-30T06:00:34;97612.31;;;23.36;64.85
69980;BME280;57318;56.232;43.944;2023-07-30T06:03:01;97617.06;;;23.29;65.56
69980;BME280;57318;56.232;43.944;2023-07-30T06:05:27;97612.47;;;23.30;65.61
69980;BME280;57318;56.232;43.944;2023-07-30T06:07:52;97616.56;;;23.32;64.76
69980;BME280;57318;56.232;43.944;2023-07-30T06:10:18;97614.66;;;23.33;63.84
69980;BME280;57318;56.232;43.944;2023-07-30T06:12:44;97618.72;;;23.30;63.37
69980;BME280;57318;56.232;43.944;2023-07-30T06:15:09;97610.59;;;23.30;63.04
69980;BME280;57318;56.232;43.944;2023-07-30T06:17:35;97613.25;;;23.69;61.80
69980;BME280;57318;56.232;43.944;2023-07-30T06:20:01;97617.28;;;24.38;60.03
69980;BME280;57318;56.232;43.944;2023-07-30T06:22:31;97621.06;;;25.02;57.85
69980;BME280;57318;56.232;43.944;2023-07-30T06:24:56;97624.84;;;25.38;56.80
69980;BME280;57318;56.232;43.944;2023-07-30T06:27:22;97626.41;;;25.77;54.21
69980;BME280;57318;56.232;43.944;2023-07-30T06:29:48;97623.78;;;25.98;53.26
69980;BME280;57318;56.232;43.944;2023-07-30T06:32:13;97626.56;;;26.18;52.06
69980;BME280;57318;56.232;43.944;2023-07-30T06:34:39;97620.03;;;26.24;51.56
69980;BME280;57318;56.232;43.944;2023-07-30T06:37:05;97620.31;;;26.18;52.51
69980;BME280;57318;56.232;43.944;2023-07-30T06:39:32;97623.88;;;26.34;51.69
69980;BME280;57318;56.232;43.944;2023-07-30T06:41:58;97619.56;;;26.69;50.23
69980;BME280;57318;56.232;43.944;2023-07-30T06:44:24;97619.56;;;26.89;49.48
69980;BME280;57318;56.232;43.944;2023-07-30T06:46:51;97617.34;;;27.07;49.07
69980;BME280;57318;56.232;43.944;2023-07-30T06:49:16;97614.63;;;27.07;49.62
69980;BME280;57318;56.232;43.944;2023-07-30T06:51:42;97614.56;;;27.43;48.90
69980;BME280;57318;56.232;43.944;2023-07-30T06:54:08;97610.31;;;27.86;47.20
69980;BME280;57318;56.232;43.944;2023-07-30T06:56:33;97612.53;;;27.79;47.23
69980;BME280;57318;56.232;43.944;2023-07-30T06:58:59;97607.34;;;27.78;47.71
69980;BME280;57318;56.232;43.944;2023-07-30T07:01:25;97613.16;;;28.21;46.30
69980;BME280;57318;56.232;43.944;2023-07-30T07:03:50;97617.19;;;28.73;45.94
69980;BME280;57318;56.232;43.944;2023-07-30T07:06:24;97618.00;;;28.74;45.16
69980;BME280;57318;56.232;43.944;2023-07-30T07:08:49;97612.97;;;28.52;45.86
69980;BME280;57318;56.232;43.944;2023-07-30T07:11:15;97610.75;;;28.09;46.91
69980;BME280;57318;56.232;43.944;2023-07-30T07:13:41;97603.38;;;27.54;47.41
69980;BME280;57318;56.232;43.944;2023-07-30T07:16:07;97604.53;;;27.17;48.09
69980;BME280;57318;56.232;43.944;2023-07-30T07:18:32;97604.03;;;26.79;48.55
69980;BME280;57318;56.232;43.944;2023-07-30T07:20:58;97609.22;;;26.76;49.08
69980;BME280;57318;56.232;43.944;2023-07-30T07:23:24;97603.75;;;26.65;49.49
69980;BME280;57318;56.232;43.944;2023-07-30T07:25:49;97608.09;;;26.51;50.00
69980;BME280;57318;56.232;43.944;2023-07-30T07:28:15;97608.06;;;26.41;50.17
69980;BME280;57318;56.232;43.944;2023-07-30T07:30:42;97613.25;;;26.37;50.33
69980;BME280;57318;56.232;43.944;2023-07-30T07:33:08;97606.97;;;26.16;50.59
69980;BME280;57318;56.232;43.944;2023-07-30T07:35:39;97609.31;;;25.92;51.47
69980;BME280;57318;56.232;43.944;2023-07-30T07:38:04;97611.06;;;25.55;52.49
69980;BME280;57318;56.232;43.944;2023-07-30T07:40:30;97603.81;;;25.24;53.61
69980;BME280;57318;56.232;43.944;2023-07-30T07:42:57;97604.97;;;24.90;55.00
69980;BME280;57318;56.232;43.944;2023-07-30T07:45:22;97594.13;;;24.58;56.10
69980;BME280;57318;56.232;43.944;2023-07-30T07:47:48;97601.06;;;24.48;57.55
69980;BME280;57318;56.232;43.944;2023-07-30T07:50:14;97593.31;;;24.30;57.91
69980;BME280;57318;56.232;43.944;2023-07-30T07:52:41;97581.84;;;24.23;60.58
69980;BME280;57318;56.232;43.944;2023-07-30T07:55:07;97589.41;;;24.21;61.59
69980;BME280;57318;56.232;43.944;2023-07-30T07:57:33;97586.03;;;25.48;58.95
69980;BME280;57318;56.232;43.944;2023-07-30T07:59:58;97579.38;;;27.46;53.21
69980;BME280;57318;56.232;43.944;2023-07-30T08:02:24;97583.56;;;29.80;47.14
69980;BME280;57318;56.232;43.944;2023-07-30T08:04:50;97590.09;;;32.18;43.48
69980;BME280;57318;56.232;43.944;2023-07-30T08:07:15;97585.63;;;34.54;37.28
69980;BME280;57318;56.232;43.944;2023-07-30T08:09:41;97593.19;;;36.08;33.68
69980;BME280;57318;56.232;43.944;2023-07-30T08:12:09;97598.25;;;37.02;31.06
69980;BME280;57318;56.232;43.944;2023-07-30T08:14:35;97584.03;;;37.37;30.59
69980;BME280;57318;56.232;43.944;2023-07-30T08:17:00;97576.31;;;36.64;31.69
69980;BME280;57318;56.232;43.944;2023-07-30T08:19:26;97571.19;;;35.22;33.62
69980;BME280;57318;56.232;43.944;2023-07-30T08:21:52;97565.28;;;33.71;36.22
69980;BME280;57318;56.232;43.944;2023-07-30T08:24:18;97557.81;;;32.24;37.96
69980;BME280;57318;56.232;43.944;2023-07-30T08:26:43;97550.69;;;31.86;38.69
69980;BME280;57318;56.232;43.944;2023-07-30T08:29:09;97552.91;;;32.34;38.43
69980;BME280;57318;56.232;43.944;2023-07-30T08:31:38;97566.81;;;32.01;37.52
69980;BME280;57318;56.232;43.944;2023-07-30T08:34:04;97554.19;;;32.00;37.29
69980;BME280;57318;56.232;43.944;2023-07-30T08:36:29;97552.63;;;31.86;37.04
69980;BME280;57318;56.232;43.944;2023-07-30T08:38:55;97548.69;;;31.22;38.71
69980;BME280;57318;56.232;43.944;2023-07-30T08:41:20;97555.69;;;31.01;39.91
69980;BME280;57318;56.232;43.944;2023-07-30T08:43:46;97556.31;;;31.53;37.89
69980;BME280;57318;56.232;43.944;2023-07-30T08:46:15;97547.34;;;31.61;37.60
69980;BME280;57318;56.232;43.944;2023-07-30T08:48:41;97563.41;;;31.82;37.56
69980;BME280;57318;56.232;43.944;2023-07-30T08:51:06;97563.97;;;31.93;36.71
69980;BME280;57318;56.232;43.944;2023-07-30T08:53:32;97560.88;;;31.44;36.90
69980;BME280;57318;56.232;43.944;2023-07-30T08:56:00;97551.63;;;31.12;37.68
69980;BME280;57318;56.232;43.944;2023-07-30T08:58:27;97549.31;;;30.72;38.14
69980;BME280;57318;56.232;43.944;2023-07-30T09:00:55;97550.50;;;30.14;39.48
69980;BME280;57318;56.232;43.944;2023-07-30T09:03:23;97539.50;;;29.76;39.74
69980;BME280;57318;56.232;43.944;2023-07-30T09:05:50;97541.34;;;30.38;39.05
69980;BME280;57318;56.232;43.944;2023-07-30T09:08:15;97544.78;;;32.29;35.57
69980;BME280;57318;56.232;43.944;2023-07-30T09:10:42;97543.31;;;32.32;35.27
69980;BME280;57318;56.232;43.944;2023-07-30T09:13:07;97546.25;;;32.13;35.95
69980;BME280;57318;56.232;43.944;2023-07-30T09:15:35;97549.41;;;32.06;36.47
69980;BME280;57318;56.232;43.944;2023-07-30T09:18:05;97560.41;;;32.06;37.22
69980;BME280;57318;56.232;43.944;2023-07-30T09:20:41;97570.91;;;32.04;37.44
69980;BME280;57318;56.232;43.944;2023-07-30T09:23:11;97570.00;;;32.09;37.20
69980;BME280;57318;56.232;43.944;2023-07-30T09:25:37;97570.03;;;31.67;38.25
69980;BME280;57318;56.232;43.944;2023-07-30T09:28:04;97575.22;;;31.13;39.09
69980;BME280;57318;56.232;43.944;2023-07-30T09:30:30;97570.94;;;31.35;38.43
69980;BME280;57318;56.232;43.944;2023-07-30T09:32:58;97552.25;;;30.76;39.40
69980;BME280;57318;56.232;43.944;2023-07-30T09:35:24;97554.19;;;30.23;40.62
69980;BME280;57318;56.232;43.944;2023-07-30T09:37:57;97551.22;;;29.39;41.50
69980;BME280;57318;56.232;43.944;2023-07-30T09:40:36;97558.31;;;28.52;43.38
69980;BME280;57318;56.232;43.944;2023-07-30T09:43:04;97559.19;;;28.42;44.69
69980;BME280;57318;56.232;43.944;2023-07-30T09:45:34;97550.06;;;28.62;44.43
69980;BME280;57318;56.232;43.944;2023-07-30T09:48:03;97559.78;;;29.75;42.43
69980;BME280;57318;56.232;43.944;2023-07-30T09:50:29;97551.88;;;32.30;37.35
69980;BME280;57318;56.232;43.944;2023-07-30T09:52:54;97554.63;;;34.40;33.62
69980;BME280;57318;56.232;43.944;2023-07-30T09:55:21;97545.66;;;36.57;30.30
69980;BME280;57318;56.232;43.944;2023-07-30T09:57:47;97547.25;;;38.71;27.39
69980;BME280;57318;56.232;43.944;2023-07-30T10:00:13;97549.75;;;40.43;24.68
69980;BME280;57318;56.232;43.944;2023-07-30T10:02:41;97538.13;;;41.50;22.88
69980;BME280;57318;56.232;43.944;2023-07-30T10:05:14;97535.94;;;41.89;21.98
69980;BME280;57318;56.232;43.944;2023-07-30T10:08:02;97539.13;;;42.52;20.47
69980;BME280;57318;56.232;43.944;2023-07-30T10:10:30;97535.06;;;43.24;20.38
69980;BME280;57318;56.232;43.944;2023-07-30T10:13:00;97537.25;;;43.46;19.14
69980;BME280;57318;56.232;43.944;2023-07-30T10:15:28;97527.34;;;43.55;19.11
69980;BME280;57318;56.232;43.944;2023-07-30T10:17:56;97520.53;;;43.56;19.02
69980;BME280;57318;56.232;43.944;2023-07-30T10:20:25;97519.56;;;43.90;18.87
69980;BME280;57318;56.232;43.944;2023-07-30T10:22:53;97516.75;;;41.84;20.48
69980;BME280;57318;56.232;43.944;2023-07-30T10:25:30;97508.97;;;40.74;21.39
69980;BME280;57318;56.232;43.944;2023-07-30T10:27:57;97519.00;;;40.79;21.99
69980;BME280;57318;56.232;43.944;2023-07-30T10:30:30;97517.91;;;41.83;21.05
69980;BME280;57318;56.232;43.944;2023-07-30T10:33:04;97526.78;;;41.62;20.79
69980;BME280;57318;56.232;43.944;2023-07-30T10:35:42;97513.88;;;40.18;21.89
69980;BME280;57318;56.232;43.944;2023-07-30T10:38:28;97505.16;;;37.84;24.97
69980;BME280;57318;56.232;43.944;2023-07-30T10:41:03;97499.00;;;35.92;27.97
69980;BME280;57318;56.232;43.944;2023-07-30T10:43:48;97503.09;;;34.40;30.93
69980;BME280;57318;56.232;43.944;2023-07-30T10:46:18;97499.66;;;32.76;32.94
69980;BME280;57318;56.232;43.944;2023-07-30T10:48:47;97514.31;;;31.39;35.45
69980;BME280;57318;56.232;43.944;2023-07-30T10:51:15;97507.22;;;30.30;37.82
69980;BME280;57318;56.232;43.944;2023-07-30T10:53:48;97513.94;;;29.43;39.36
69980;BME280;57318;56.232;43.944;2023-07-30T10:56:21;97515.34;;;28.57;41.62
69980;BME280;57318;56.232;43.944;2023-07-30T10:58:54;97518.69;;;27.75;43.16
69980;BME280;57318;56.232;43.944;2023-07-30T11:01:20;97516.25;;;26.93;45.46
69980;BME280;57318;56.232;43.944;2023-07-30T11:03:50;97506.00;;;26.33;47.04
69980;BME280;57318;56.232;43.944;2023-07-30T11:06:25;97506.78;;;25.98;48.40
69980;BME280;57318;56.232;43.944;2023-07-30T11:08:52;97512.13;;;25.67;49.60
69980;BME280;57318;56.232;43.944;2023-07-30T11:11:18;97512.59;;;25.43;50.94
69980;BME280;57318;56.232;43.944;2023-07-30T11:13:46;97530.69;;;25.22;52.14
69980;BME280;57318;56.232;43.944;2023-07-30T11:16:14;97533.53;;;24.95;53.18
69980;BME280;57318;56.232;43.944;2023-07-30T11:18:42;97536.94;;;25.17;53.77
69980;BME280;57318;56.232;43.944;2023-07-30T11:21:11;97533.13;;;25.18;55.65
69980;BME280;57318;56.232;43.944;2023-07-30T11:23:39;97537.19;;;25.11;55.76
69980;BME280;57318;56.232;43.944;2023-07-30T11:26:07;97542.78;;;24.94;56.28
69980;BME280;57318;56.232;43.944;2023-07-30T11:28:37;97526.75;;;24.55;57.03
69980;BME280;57318;56.232;43.944;2023-07-30T11:31:12;97539.34;;;24.34;57.54
69980;BME280;57318;56.232;43.944;2023-07-30T11:33:43;97528.03;;;24.14;57.69
69980;BME280;57318;56.232;43.944;2023-07-30T11:36:12;97531.44;;;24.00;58.14
69980;BME280;57318;56.232;43.944;2023-07-30T11:38:38;97540.47;;;23.83;58.61
69980;BME280;57318;56.232;43.944;2023-07-30T11:41:05;97529.13;;;23.64;59.44
69980;BME280;57318;56.232;43.944;2023-07-30T11:43:44;97536.41;;;23.58;59.70
69980;BME280;57318;56.232;43.944;2023-07-30T11:46:16;97540.47;;;23.61;59.53
69980;BME280;57318;56.232;43.944;2023-07-30T11:48:44;97541.53;;;23.55;59.70
69980;BME280;57318;56.232;43.944;2023-07-30T11:51:27;97535.16;;;23.44;60.26
69980;BME280;57318;56.232;43.944;2023-07-30T11:54:00;97537.38;;;23.47;60.30
69980;BME280;57318;56.232;43.944;2023-07-30T11:56:29;97530.09;;;23.53;60.74
69980;BME280;57318;56.232;43.944;2023-07-30T11:59:06;97543.91;;;23.51;61.77
69980;BME280;57318;56.232;43.944;2023-07-30T12:01:33;97542.19;;;23.45;62.95
69980;BME280;57318;56.232;43.944;2023-07-30T12:04:03;97536.97;;;23.38;63.93
69980;BME280;57318;56.232;43.944;2023-07-30T12:06:49;97535.22;;;23.49;64.23
69980;BME280;57318;56.232;43.944;2023-07-30T12:09:22;97528.63;;;23.67;64.47
69980;BME280;57318;56.232;43.944;2023-07-30T12:11:54;97539.16;;;23.86;64.39
69980;BME280;57318;56.232;43.944;2023-07-30T12:14:23;97539.56;;;24.00;63.75
69980;BME280;57318;56.232;43.944;2023-07-30T12:16:51;97550.72;;;24.03;63.07
69980;BME280;57318;56.232;43.944;2023-07-30T12:19:17;97553.44;;;24.03;62.88
69980;BME280;57318;56.232;43.944;2023-07-30T12:21:42;97550.63;;;23.93;63.99
69980;BME280;57318;56.232;43.944;2023-07-30T12:24:08;97552.50;;;23.70;64.39
69980;BME280;57318;56.232;43.944;2023-07-30T12:26:34;97550.22;;;23.57;64.96
69980;BME280;57318;56.232;43.944;2023-07-30T12:28:59;97548.88;;;23.37;65.87
69980;BME280;57318;56.232;43.944;2023-07-30T12:31:25;97551.44;;;23.05;66.10
69980;BME280;57318;56.232;43.944;2023-07-30T12:33:51;97555.16;;;22.65;68.04
69980;BME280;57318;56.232;43.944;2023-07-30T12:36:16;97553.56;;;22.18;69.91
69980;BME280;57318;56.232;43.944;2023-07-30T12:38:42;97551.38;;;21.86;69.67
69980;BME280;57318;56.232;43.944;2023-07-30T12:41:08;97556.72;;;21.69;70.71
69980;BME280;57318;56.232;43.944;2023-07-30T12:43:33;97566.56;;;21.58;71.71
69980;BME280;57318;56.232;43.944;2023-07-30T12:45:59;97571.03;;;21.53;72.67
69980;BME280;57318;56.232;43.944;2023-07-30T12:48:25;97568.16;;;21.59;72.10
69980;BME280;57318;56.232;43.944;2023-07-30T12:50:51;97575.78;;;21.74;71.59